sensor_id;sensor_type;location;lat;lon;timestamp;P1;durP1;ratioP1;P2;durP2;ratioP2
32523;SDS011;18965;52.242;20.886;2023-07-13T00:01:50;9.15;;;7.40;;
32523;SDS011;18965;52.242;20.886;2023-07-13T00:04:20;11.73;;;8.93;;
32523;SDS011;18965;52.242;20.886;2023-07-13T00:06:48;12.77;;;8.60;;
32523;SDS011;18965;52.242;20.886;2023-07-13T00:09:16;11.55;;;8.18;;
32523;SDS011;18965;52.242;20.886;2023-07-13T00:11:42;12.68;;;8.00;;
32523;SDS011;18965;52.242;20.886;2023-07-13T00:14:09;14.85;;;9.20;;
32523;SDS011;18965;52.242;20.886;2023-07-13T00:16:37;11.98;;;8.63;;
32523;SDS011;18965;52.242;20.886;2023-07-13T00:19:05;13.02;;;7.93;;
32523;SDS011;18965;52.242;20.886;2023-07-13T00:21:31;11.25;;;7.68;;
32523;SDS011;18965;52.242;20.886;2023-07-13T00:23:57;11.13;;;7.45;;
32523;SDS011;18965;52.242;20.886;2023-07-13T00:26:23;10.00;;;8.60;;
32523;SDS011;18965;52.242;20.886;2023-07-13T00:28:49;13.40;;;8.27;;
32523;SDS011;18965;52.242;20.886;2023-07-13T00:31:15;11.35;;;7.80;;
32523;SDS011;18965;52.242;20.886;2023-07-13T00:33:41;11.55;;;8.25;;
32523;SDS011;18965;52.242;20.886;2023-07-13T00:45:05;11.57;;;8.15;;
32523;SDS011;18965;52.242;20.886;2023-07-13T00:47:31;12.70;;;8.00;;
32523;SDS011;18965;52.242;20.886;2023-07-13T00:53:37;16.83;;;8.43;;
32523;SDS011;18965;52.242;20.886;2023-07-13T00:59:50;12.02;;;8.77;;
32523;SDS011;18965;52.242;20.886;2023-07-13T01:23:43;9.25;;;8.02;;
32523;SDS011;18965;52.242;20.886;2023-07-13T01:33:37;11.68;;;8.90;;
32523;SDS011;18965;52.242;20.886;2023-07-13T01:43:38;15.30;;;8.60;;
32523;SDS011;18965;52.242;20.886;2023-07-13T01:53:44;11.82;;;8.20;;
32523;SDS011;18965;52.242;20.886;2023-07-13T02:02:24;13.80;;;8.93;;
32523;SDS011;18965;52.242;20.886;2023-07-13T02:08:46;10.32;;;8.27;;
32523;SDS011;18965;52.242;20.886;2023-07-13T02:11:12;15.23;;;8.90;;
32523;SDS011;18965;52.242;20.886;2023-07-13T02:23:28;10.98;;;9.15;;
32523;SDS011;18965;52.242;20.886;2023-07-13T02:29:17;14.05;;;9.35;;
32523;SDS011;18965;52.242;20.886;2023-07-13T02:31:44;15.25;;;8.90;;
32523;SDS011;18965;52.242;20.886;2023-07-13T02:44:12;16.85;;;9.45;;
32523;SDS011;18965;52.242;20.886;2023-07-13T02:49:43;14.48;;;9.93;;
32523;SDS011;18965;52.242;20.886;2023-07-13T02:52:09;14.70;;;9.20;;
32523;SDS011;18965;52.242;20.886;2023-07-13T02:54:35;11.30;;;9.23;;
32523;SDS011;18965;52.242;20.886;2023-07-13T02:57:01;13.15;;;8.80;;
32523;SDS011;18965;52.242;20.886;2023-07-13T02:59:27;14.70;;;9.88;;
32523;SDS011;18965;52.242;20.886;2023-07-13T03:02:00;13.18;;;9.02;;
32523;SDS011;18965;52.242;20.886;2023-07-13T03:04:34;13.27;;;9.50;;
32523;SDS011;18965;52.242;20.886;2023-07-13T03:07:04;13.20;;;9.95;;
32523;SDS011;18965;52.242;20.886;2023-07-13T03:09:31;13.85;;;9.30;;
32523;SDS011;18965;52.242;20.886;2023-07-13T03:11:58;16.55;;;9.70;;
32523;SDS011;18965;52.242;20.886;2023-07-13T03:14:24;11.23;;;8.65;;
32523;SDS011;18965;52.242;20.886;2023-07-13T03:23:46;14.03;;;9.37;;
32523;SDS011;18965;52.242;20.886;2023-07-13T03:26:16;13.68;;;9.85;;
32523;SDS011;18965;52.242;20.886;2023-07-13T03:28:45;15.30;;;9.45;;
32523;SDS011;18965;52.242;20.886;2023-07-13T03:31:18;13.25;;;9.10;;
32523;SDS011;18965;52.242;20.886;2023-07-13T03:33:46;13.65;;;9.88;;
32523;SDS011;18965;52.242;20.886;2023-07-13T03:36:14;12.63;;;9.77;;
32523;SDS011;18965;52.242;20.886;2023-07-13T03:38:45;13.93;;;9.13;;
32523;SDS011;18965;52.242;20.886;2023-07-13T03:41:21;19.00;;;10.23;;
32523;SDS011;18965;52.242;20.886;2023-07-13T03:43:48;15.35;;;9.98;;
32523;SDS011;18965;52.242;20.886;2023-07-13T03:46:14;16.05;;;9.40;;
32523;SDS011;18965;52.242;20.886;2023-07-13T03:48:43;15.52;;;9.93;;
32523;SDS011;18965;52.242;20.886;2023-07-13T03:51:10;16.52;;;9.18;;
32523;SDS011;18965;52.242;20.886;2023-07-13T03:56:28;11.40;;;9.60;;
32523;SDS011;18965;52.242;20.886;2023-07-13T03:59:00;14.13;;;8.93;;
32523;SDS011;18965;52.242;20.886;2023-07-13T04:01:27;15.38;;;10.35;;
32523;SDS011;18965;52.242;20.886;2023-07-13T04:03:53;13.05;;;10.20;;
32523;SDS011;18965;52.242;20.886;2023-07-13T04:12:48;14.40;;;10.13;;
32523;SDS011;18965;52.242;20.886;2023-07-13T04:32:34;14.38;;;11.18;;
32523;SDS011;18965;52.242;20.886;2023-07-13T05:04:06;13.30;;;10.25;;
32523;SDS011;18965;52.242;20.886;2023-07-13T05:07:52;13.10;;;9.35;;
32523;SDS011;18965;52.242;20.886;2023-07-13T05:13:29;13.05;;;10.35;;
32523;SDS011;18965;52.242;20.886;2023-07-13T05:27:38;11.57;;;8.73;;
32523;SDS011;18965;52.242;20.886;2023-07-13T05:29:51;14.93;;;10.27;;
32523;SDS011;18965;52.242;20.886;2023-07-13T05:32:17;13.23;;;10.52;;
32523;SDS011;18965;52.242;20.886;2023-07-13T05:34:44;13.35;;;10.05;;
32523;SDS011;18965;52.242;20.886;2023-07-13T05:37:10;12.98;;;10.52;;
32523;SDS011;18965;52.242;20.886;2023-07-13T05:43:20;14.35;;;10.75;;
32523;SDS011;18965;52.242;20.886;2023-07-13T05:45:46;15.95;;;11.15;;
32523;SDS011;18965;52.242;20.886;2023-07-13T05:48:15;16.42;;;11.55;;
32523;SDS011;18965;52.242;20.886;2023-07-13T05:50:41;13.18;;;11.30;;
32523;SDS011;18965;52.242;20.886;2023-07-13T05:53:07;13.68;;;10.88;;
32523;SDS011;18965;52.242;20.886;2023-07-13T05:58:56;14.88;;;10.50;;
32523;SDS011;18965;52.242;20.886;2023-07-13T06:02:07;14.23;;;11.27;;
32523;SDS011;18965;52.242;20.886;2023-07-13T06:04:21;19.67;;;11.95;;
32523;SDS011;18965;52.242;20.886;2023-07-13T06:06:47;15.13;;;11.47;;
32523;SDS011;18965;52.242;20.886;2023-07-13T06:09:13;19.15;;;12.43;;
32523;SDS011;18965;52.242;20.886;2023-07-13T06:18:25;17.02;;;11.07;;
32523;SDS011;18965;52.242;20.886;2023-07-13T06:20:51;15.48;;;12.63;;
32523;SDS011;18965;52.242;20.886;2023-07-13T06:23:20;13.40;;;11.18;;
32523;SDS011;18965;52.242;20.886;2023-07-13T06:26:16;16.45;;;12.65;;
32523;SDS011;18965;52.242;20.886;2023-07-13T06:28:43;19.00;;;12.90;;
32523;SDS011;18965;52.242;20.886;2023-07-13T06:31:09;13.00;;;10.93;;
32523;SDS011;18965;52.242;20.886;2023-07-13T06:33:37;16.50;;;11.32;;
32523;SDS011;18965;52.242;20.886;2023-07-13T06:36:03;14.30;;;10.80;;
32523;SDS011;18965;52.242;20.886;2023-07-13T06:38:30;12.13;;;10.13;;
32523;SDS011;18965;52.242;20.886;2023-07-13T06:40:56;10.88;;;9.38;;
32523;SDS011;18965;52.242;20.886;2023-07-13T06:43:22;11.48;;;9.23;;
32523;SDS011;18965;52.242;20.886;2023-07-13T06:45:49;13.18;;;9.60;;
32523;SDS011;18965;52.242;20.886;2023-07-13T06:48:17;8.88;;;7.97;;
32523;SDS011;18965;52.242;20.886;2023-07-13T06:50:44;8.23;;;6.25;;
32523;SDS011;18965;52.242;20.886;2023-07-13T06:53:11;11.77;;;7.80;;
32523;SDS011;18965;52.242;20.886;2023-07-13T06:55:37;12.15;;;7.35;;
32523;SDS011;18965;52.242;20.886;2023-07-13T06:58:04;10.95;;;7.35;;
32523;SDS011;18965;52.242;20.886;2023-07-13T07:00:30;7.45;;;6.63;;
32523;SDS011;18965;52.242;20.886;2023-07-13T07:02:55;5.75;;;5.18;;
32523;SDS011;18965;52.242;20.886;2023-07-13T07:05:21;6.22;;;4.93;;
32523;SDS011;18965;52.242;20.886;2023-07-13T07:07:49;6.03;;;4.45;;
32523;SDS011;18965;52.242;20.886;2023-07-13T07:10:15;5.45;;;4.40;;
32523;SDS011;18965;52.242;20.886;2023-07-13T07:12:41;7.32;;;4.72;;
32523;SDS011;18965;52.242;20.886;2023-07-13T07:15:07;6.72;;;4.40;;
32523;SDS011;18965;52.242;20.886;2023-07-13T07:17:33;7.40;;;5.13;;
32523;SDS011;18965;52.242;20.886;2023-07-13T07:19:59;5.53;;;4.60;;
32523;SDS011;18965;52.242;20.886;2023-07-13T07:22:27;8.13;;;4.82;;
32523;SDS011;18965;52.242;20.886;2023-07-13T07:24:53;7.30;;;4.90;;
32523;SDS011;18965;52.242;20.886;2023-07-13T07:27:19;7.35;;;4.60;;
32523;SDS011;18965;52.242;20.886;2023-07-13T07:29:48;7.88;;;4.85;;
32523;SDS011;18965;52.242;20.886;2023-07-13T07:32:14;6.70;;;4.43;;
32523;SDS011;18965;52.242;20.886;2023-07-13T07:34:40;9.20;;;4.70;;
32523;SDS011;18965;52.242;20.886;2023-07-13T07:37:05;5.82;;;4.80;;
32523;SDS011;18965;52.242;20.886;2023-07-13T07:39:31;7.00;;;4.68;;
32523;SDS011;18965;52.242;20.886;2023-07-13T07:41:58;6.60;;;4.50;;
32523;SDS011;18965;52.242;20.886;2023-07-13T07:44:23;5.28;;;4.70;;
32523;SDS011;18965;52.242;20.886;2023-07-13T07:46:49;5.57;;;4.70;;
32523;SDS011;18965;52.242;20.886;2023-07-13T07:49:16;9.25;;;5.10;;
32523;SDS011;18965;52.242;20.886;2023-07-13T07:51:42;6.30;;;4.45;;
32523;SDS011;18965;52.242;20.886;2023-07-13T07:54:08;10.50;;;4.80;;
32523;SDS011;18965;52.242;20.886;2023-07-13T07:56:33;7.57;;;4.60;;
32523;SDS011;18965;52.242;20.886;2023-07-13T07:58:59;5.30;;;4.15;;
32523;SDS011;18965;52.242;20.886;2023-07-13T08:01:25;8.35;;;4.22;;
32523;SDS011;18965;52.242;20.886;2023-07-13T08:03:51;5.72;;;4.53;;
32523;SDS011;18965;52.242;20.886;2023-07-13T08:06:17;5.28;;;4.30;;
32523;SDS011;18965;52.242;20.886;2023-07-13T08:08:44;7.10;;;4.53;;
32523;SDS011;18965;52.242;20.886;2023-07-13T08:11:16;6.15;;;4.35;;
32523;SDS011;18965;52.242;20.886;2023-07-13T08:13:42;7.35;;;4.55;;
32523;SDS011;18965;52.242;20.886;2023-07-13T08:16:08;6.03;;;4.15;;
32523;SDS011;18965;52.242;20.886;2023-07-13T08:18:33;4.68;;;3.88;;
32523;SDS011;18965;52.242;20.886;2023-07-13T08:21:05;4.15;;;3.60;;
32523;SDS011;18965;52.242;20.886;2023-07-13T08:23:32;4.65;;;3.80;;
32523;SDS011;18965;52.242;20.886;2023-07-13T08:26:02;6.50;;;4.38;;
32523;SDS011;18965;52.242;20.886;2023-07-13T08:28:28;6.18;;;4.57;;
32523;SDS011;18965;52.242;20.886;2023-07-13T08:30:54;7.72;;;4.82;;
32523;SDS011;18965;52.242;20.886;2023-07-13T08:33:20;6.22;;;4.78;;
32523;SDS011;18965;52.242;20.886;2023-07-13T08:35:49;6.82;;;4.78;;
32523;SDS011;18965;52.242;20.886;2023-07-13T08:38:16;5.93;;;4.40;;
32523;SDS011;18965;52.242;20.886;2023-07-13T08:40:42;5.85;;;4.40;;
32523;SDS011;18965;52.242;20.886;2023-07-13T08:43:12;7.28;;;4.55;;
32523;SDS011;18965;52.242;20.886;2023-07-13T08:48:19;6.53;;;4.20;;
32523;SDS011;18965;52.242;20.886;2023-07-13T08:53:21;5.28;;;4.30;;
32523;SDS011;18965;52.242;20.886;2023-07-13T08:55:51;6.10;;;4.40;;
32523;SDS011;18965;52.242;20.886;2023-07-13T08:58:24;7.10;;;4.70;;
32523;SDS011;18965;52.242;20.886;2023-07-13T09:01:04;8.18;;;4.70;;
32523;SDS011;18965;52.242;20.886;2023-07-13T09:07:21;5.10;;;4.20;;
32523;SDS011;18965;52.242;20.886;2023-07-13T09:12:15;6.25;;;5.07;;
32523;SDS011;18965;52.242;20.886;2023-07-13T09:14:54;6.70;;;4.88;;
32523;SDS011;18965;52.242;20.886;2023-07-13T09:17:30;6.57;;;5.00;;
32523;SDS011;18965;52.242;20.886;2023-07-13T09:22:53;6.00;;;4.78;;
32523;SDS011;18965;52.242;20.886;2023-07-13T09:28:02;6.55;;;4.82;;
32523;SDS011;18965;52.242;20.886;2023-07-13T09:30:51;6.65;;;5.15;;
32523;SDS011;18965;52.242;20.886;2023-07-13T09:33:26;6.38;;;4.90;;
32523;SDS011;18965;52.242;20.886;2023-07-13T09:35:54;9.18;;;4.80;;
32523;SDS011;18965;52.242;20.886;2023-07-13T09:38:23;7.75;;;5.00;;
32523;SDS011;18965;52.242;20.886;2023-07-13T09:44:00;7.63;;;4.28;;
32523;SDS011;18965;52.242;20.886;2023-07-13T09:46:37;6.35;;;3.75;;
32523;SDS011;18965;52.242;20.886;2023-07-13T09:49:04;5.05;;;2.97;;
32523;SDS011;18965;52.242;20.886;2023-07-13T09:51:30;6.57;;;2.90;;
32523;SDS011;18965;52.242;20.886;2023-07-13T09:53:56;3.35;;;3.05;;
32523;SDS011;18965;52.242;20.886;2023-07-13T09:56:28;2.90;;;2.50;;
32523;SDS011;18965;52.242;20.886;2023-07-13T09:58:55;5.32;;;3.08;;
32523;SDS011;18965;52.242;20.886;2023-07-13T10:01:32;5.03;;;3.20;;
32523;SDS011;18965;52.242;20.886;2023-07-13T10:04:00;6.55;;;4.13;;
32523;SDS011;18965;52.242;20.886;2023-07-13T10:06:26;7.15;;;3.80;;
32523;SDS011;18965;52.242;20.886;2023-07-13T10:08:55;3.85;;;3.33;;
32523;SDS011;18965;52.242;20.886;2023-07-13T10:11:24;5.82;;;3.90;;
32523;SDS011;18965;52.242;20.886;2023-07-13T10:13:58;6.53;;;3.70;;
32523;SDS011;18965;52.242;20.886;2023-07-13T10:16:34;4.63;;;3.58;;
32523;SDS011;18965;52.242;20.886;2023-07-13T10:19:34;7.22;;;3.92;;
32523;SDS011;18965;52.242;20.886;2023-07-13T10:22:02;7.95;;;4.45;;
32523;SDS011;18965;52.242;20.886;2023-07-13T10:24:48;6.47;;;4.05;;
32523;SDS011;18965;52.242;20.886;2023-07-13T10:27:17;10.63;;;4.85;;
32523;SDS011;18965;52.242;20.886;2023-07-13T10:32:19;9.63;;;4.82;;
32523;SDS011;18965;52.242;20.886;2023-07-13T10:34:48;12.10;;;5.70;;
32523;SDS011;18965;52.242;20.886;2023-07-13T10:37:19;6.47;;;4.55;;
32523;SDS011;18965;52.242;20.886;2023-07-13T10:39:58;7.05;;;4.20;;
32523;SDS011;18965;52.242;20.886;2023-07-13T10:42:44;8.55;;;4.13;;
32523;SDS011;18965;52.242;20.886;2023-07-13T10:45:14;8.23;;;4.03;;
32523;SDS011;18965;52.242;20.886;2023-07-13T10:47:42;12.15;;;4.22;;
32523;SDS011;18965;52.242;20.886;2023-07-13T10:50:12;6.10;;;4.13;;
32523;SDS011;18965;52.242;20.886;2023-07-13T10:52:47;7.82;;;3.83;;
32523;SDS011;18965;52.242;20.886;2023-07-13T11:00:57;6.38;;;3.70;;
32523;SDS011;18965;52.242;20.886;2023-07-13T11:08:58;5.90;;;3.77;;
32523;SDS011;18965;52.242;20.886;2023-07-13T11:11:43;4.40;;;3.40;;
32523;SDS011;18965;52.242;20.886;2023-07-13T11:14:27;4.70;;;3.15;;
32523;SDS011;18965;52.242;20.886;2023-07-13T11:25:31;4.53;;;3.88;;
32523;SDS011;18965;52.242;20.886;2023-07-13T11:30:35;5.68;;;3.97;;
32523;SDS011;18965;52.242;20.886;2023-07-13T11:33:21;5.32;;;3.67;;
32523;SDS011;18965;52.242;20.886;2023-07-13T11:38:27;7.38;;;3.42;;
32523;SDS011;18965;52.242;20.886;2023-07-13T11:44:21;9.63;;;4.40;;
32523;SDS011;18965;52.242;20.886;2023-07-13T11:46:52;6.25;;;3.92;;
32523;SDS011;18965;52.242;20.886;2023-07-13T11:49:25;11.07;;;4.18;;
32523;SDS011;18965;52.242;20.886;2023-07-13T11:51:54;5.70;;;3.83;;
32523;SDS011;18965;52.242;20.886;2023-07-13T11:57:56;8.38;;;4.18;;
32523;SDS011;18965;52.242;20.886;2023-07-13T11:59:52;10.35;;;4.45;;
32523;SDS011;18965;52.242;20.886;2023-07-13T12:02:32;7.57;;;3.90;;
32523;SDS011;18965;52.242;20.886;2023-07-13T12:05:01;5.15;;;3.80;;
32523;SDS011;18965;52.242;20.886;2023-07-13T12:07:29;6.68;;;3.70;;
32523;SDS011;18965;52.242;20.886;2023-07-13T12:10:03;5.93;;;3.55;;
32523;SDS011;18965;52.242;20.886;2023-07-13T12:12:51;5.82;;;3.65;;
32523;SDS011;18965;52.242;20.886;2023-07-13T12:15:17;5.22;;;3.70;;
32523;SDS011;18965;52.242;20.886;2023-07-13T12:17:44;5.13;;;3.13;;
32523;SDS011;18965;52.242;20.886;2023-07-13T12:20:33;11.23;;;3.90;;
32523;SDS011;18965;52.242;20.886;2023-07-13T12:23:04;10.50;;;4.32;;
32523;SDS011;18965;52.242;20.886;2023-07-13T12:25:31;5.57;;;4.00;;
32523;SDS011;18965;52.242;20.886;2023-07-13T12:27:56;8.35;;;4.30;;
32523;SDS011;18965;52.242;20.886;2023-07-13T12:32:56;6.32;;;3.92;;
32523;SDS011;18965;52.242;20.886;2023-07-13T12:35:22;10.20;;;4.63;;
32523;SDS011;18965;52.242;20.886;2023-07-13T12:37:47;6.93;;;4.55;;
32523;SDS011;18965;52.242;20.886;2023-07-13T12:40:16;6.38;;;4.15;;
32523;SDS011;18965;52.242;20.886;2023-07-13T12:42:45;9.90;;;4.50;;
32523;SDS011;18965;52.242;20.886;2023-07-13T12:45:20;6.40;;;4.40;;
32523;SDS011;18965;52.242;20.886;2023-07-13T12:47:52;6.05;;;4.45;;
32523;SDS011;18965;52.242;20.886;2023-07-13T12:50:21;10.25;;;4.25;;
32523;SDS011;18965;52.242;20.886;2023-07-13T12:52:51;7.78;;;4.13;;
32523;SDS011;18965;52.242;20.886;2023-07-13T12:55:19;8.25;;;4.53;;
32523;SDS011;18965;52.242;20.886;2023-07-13T12:57:50;14.02;;;4.43;;
32523;SDS011;18965;52.242;20.886;2023-07-13T13:03:00;8.77;;;4.15;;
32523;SDS011;18965;52.242;20.886;2023-07-13T13:05:30;11.30;;;4.70;;
32523;SDS011;18965;52.242;20.886;2023-07-13T13:08:20;6.22;;;4.25;;
32523;SDS011;18965;52.242;20.886;2023-07-13T13:10:48;4.93;;;4.25;;
32523;SDS011;18965;52.242;20.886;2023-07-13T13:13:39;4.70;;;4.00;;
32523;SDS011;18965;52.242;20.886;2023-07-13T13:16:23;5.55;;;3.97;;
32523;SDS011;18965;52.242;20.886;2023-07-13T13:19:18;8.75;;;4.30;;
32523;SDS011;18965;52.242;20.886;2023-07-13T13:25:48;8.30;;;4.43;;
32523;SDS011;18965;52.242;20.886;2023-07-13T14:07:37;7.55;;;4.18;;
32523;SDS011;18965;52.242;20.886;2023-07-13T14:10:11;9.55;;;4.97;;
32523;SDS011;18965;52.242;20.886;2023-07-13T14:12:51;6.63;;;4.88;;
32523;SDS011;18965;52.242;20.886;2023-07-13T14:15:24;6.53;;;5.10;;
32523;SDS011;18965;52.242;20.886;2023-07-13T14:17:53;8.52;;;4.22;;
32523;SDS011;18965;52.242;20.886;2023-07-13T14:23:17;11.55;;;5.45;;
32523;SDS011;18965;52.242;20.886;2023-07-13T14:26:22;7.53;;;5.47;;
32523;SDS011;18965;52.242;20.886;2023-07-13T14:28:58;8.05;;;4.72;;
32523;SDS011;18965;52.242;20.886;2023-07-13T14:31:53;6.32;;;4.80;;
32523;SDS011;18965;52.242;20.886;2023-07-13T14:34:19;7.60;;;5.25;;
32523;SDS011;18965;52.242;20.886;2023-07-13T14:36:46;11.13;;;5.88;;
32523;SDS011;18965;52.242;20.886;2023-07-13T14:39:20;12.00;;;5.57;;
32523;SDS011;18965;52.242;20.886;2023-07-13T14:41:49;12.45;;;5.70;;
32523;SDS011;18965;52.242;20.886;2023-07-13T14:44:17;10.98;;;5.32;;
32523;SDS011;18965;52.242;20.886;2023-07-13T14:46:45;12.00;;;5.65;;
32523;SDS011;18965;52.242;20.886;2023-07-13T14:51:47;12.15;;;7.18;;
32523;SDS011;18965;52.242;20.886;2023-07-13T14:54:13;10.40;;;7.18;;
32523;SDS011;18965;52.242;20.886;2023-07-13T14:56:39;10.50;;;6.95;;
32523;SDS011;18965;52.242;20.886;2023-07-13T14:59:05;9.65;;;7.25;;
32523;SDS011;18965;52.242;20.886;2023-07-13T15:01:32;11.27;;;6.32;;
32523;SDS011;18965;52.242;20.886;2023-07-13T15:04:02;11.07;;;6.30;;
32523;SDS011;18965;52.242;20.886;2023-07-13T15:06:29;13.02;;;6.43;;
32523;SDS011;18965;52.242;20.886;2023-07-13T15:08:56;11.20;;;6.80;;
32523;SDS011;18965;52.242;20.886;2023-07-13T15:11:22;10.60;;;6.50;;
32523;SDS011;18965;52.242;20.886;2023-07-13T15:13:48;8.25;;;6.20;;
32523;SDS011;18965;52.242;20.886;2023-07-13T15:16:18;7.38;;;5.95;;
32523;SDS011;18965;52.242;20.886;2023-07-13T15:18:48;9.10;;;5.40;;
32523;SDS011;18965;52.242;20.886;2023-07-13T15:21:22;9.57;;;6.40;;
32523;SDS011;18965;52.242;20.886;2023-07-13T15:23:49;9.10;;;5.50;;
32523;SDS011;18965;52.242;20.886;2023-07-13T15:26:16;13.90;;;6.43;;
32523;SDS011;18965;52.242;20.886;2023-07-13T15:28:44;7.82;;;5.57;;
32523;SDS011;18965;52.242;20.886;2023-07-13T15:31:18;10.95;;;5.85;;
32523;SDS011;18965;52.242;20.886;2023-07-13T15:33:46;9.65;;;5.80;;
32523;SDS011;18965;52.242;20.886;2023-07-13T15:36:14;6.85;;;5.43;;
32523;SDS011;18965;52.242;20.886;2023-07-13T15:38:42;7.93;;;5.68;;
32523;SDS011;18965;52.242;20.886;2023-07-13T15:41:16;9.50;;;5.68;;
32523;SDS011;18965;52.242;20.886;2023-07-13T15:43:50;9.32;;;6.68;;
32523;SDS011;18965;52.242;20.886;2023-07-13T15:46:18;11.82;;;6.18;;
32523;SDS011;18965;52.242;20.886;2023-07-13T15:48:47;10.35;;;6.45;;
32523;SDS011;18965;52.242;20.886;2023-07-13T15:53:54;7.53;;;6.27;;
32523;SDS011;18965;52.242;20.886;2023-07-13T15:56:29;9.18;;;5.85;;
32523;SDS011;18965;52.242;20.886;2023-07-13T15:58:58;9.05;;;6.28;;
32523;SDS011;18965;52.242;20.886;2023-07-13T16:01:24;8.13;;;6.38;;
32523;SDS011;18965;52.242;20.886;2023-07-13T16:03:51;10.40;;;6.43;;
32523;SDS011;18965;52.242;20.886;2023-07-13T16:06:18;8.40;;;6.72;;
32523;SDS011;18965;52.242;20.886;2023-07-13T16:08:52;7.47;;;5.75;;
32523;SDS011;18965;52.242;20.886;2023-07-13T16:11:23;7.15;;;6.07;;
32523;SDS011;18965;52.242;20.886;2023-07-13T16:13:50;9.13;;;6.25;;
32523;SDS011;18965;52.242;20.886;2023-07-13T16:16:20;9.93;;;7.05;;
32523;SDS011;18965;52.242;20.886;2023-07-13T16:18:51;14.85;;;6.38;;
32523;SDS011;18965;52.242;20.886;2023-07-13T16:21:19;7.43;;;6.18;;
32523;SDS011;18965;52.242;20.886;2023-07-13T16:23:45;10.35;;;6.40;;
32523;SDS011;18965;52.242;20.886;2023-07-13T16:28:58;8.68;;;5.97;;
32523;SDS011;18965;52.242;20.886;2023-07-13T16:31:32;7.50;;;5.88;;
32523;SDS011;18965;52.242;20.886;2023-07-13T16:33:58;9.15;;;5.75;;
32523;SDS011;18965;52.242;20.886;2023-07-13T16:36:24;7.43;;;5.95;;
32523;SDS011;18965;52.242;20.886;2023-07-13T16:38:51;8.18;;;5.85;;
32523;SDS011;18965;52.242;20.886;2023-07-13T16:41:16;7.60;;;5.85;;
32523;SDS011;18965;52.242;20.886;2023-07-13T16:43:42;8.05;;;6.03;;
32523;SDS011;18965;52.242;20.886;2023-07-13T16:46:10;10.95;;;6.50;;
32523;SDS011;18965;52.242;20.886;2023-07-13T16:48:41;8.20;;;5.95;;
32523;SDS011;18965;52.242;20.886;2023-07-13T16:51:07;8.32;;;6.47;;
32523;SDS011;18965;52.242;20.886;2023-07-13T16:53:32;7.30;;;5.97;;
32523;SDS011;18965;52.242;20.886;2023-07-13T16:55:59;7.53;;;6.13;;
32523;SDS011;18965;52.242;20.886;2023-07-13T16:58:30;8.65;;;6.35;;
32523;SDS011;18965;52.242;20.886;2023-07-13T17:00:57;7.07;;;6.13;;
32523;SDS011;18965;52.242;20.886;2023-07-13T17:03:24;10.75;;;6.53;;
32523;SDS011;18965;52.242;20.886;2023-07-13T17:05:51;8.30;;;5.72;;
32523;SDS011;18965;52.242;20.886;2023-07-13T17:08:36;11.27;;;6.20;;
32523;SDS011;18965;52.242;20.886;2023-07-13T17:11:01;8.43;;;5.93;;
32523;SDS011;18965;52.242;20.886;2023-07-13T17:13:28;7.53;;;5.95;;
32523;SDS011;18965;52.242;20.886;2023-07-13T17:15:55;9.40;;;6.22;;
32523;SDS011;18965;52.242;20.886;2023-07-13T17:18:23;7.63;;;5.80;;
32523;SDS011;18965;52.242;20.886;2023-07-13T17:20:53;8.38;;;5.78;;
32523;SDS011;18965;52.242;20.886;2023-07-13T17:23:20;11.32;;;6.10;;
32523;SDS011;18965;52.242;20.886;2023-07-13T17:25:49;9.50;;;6.13;;
32523;SDS011;18965;52.242;20.886;2023-07-13T17:28:17;8.88;;;6.07;;
32523;SDS011;18965;52.242;20.886;2023-07-13T17:30:45;10.55;;;6.05;;
32523;SDS011;18965;52.242;20.886;2023-07-13T17:35:53;9.55;;;6.00;;
32523;SDS011;18965;52.242;20.886;2023-07-13T17:38:20;9.68;;;6.03;;
32523;SDS011;18965;52.242;20.886;2023-07-13T17:40:45;10.77;;;5.95;;
32523;SDS011;18965;52.242;20.886;2023-07-13T17:43:11;8.13;;;5.88;;
32523;SDS011;18965;52.242;20.886;2023-07-13T17:45:37;8.63;;;5.53;;
32523;SDS011;18965;52.242;20.886;2023-07-13T17:48:07;7.35;;;5.50;;
32523;SDS011;18965;52.242;20.886;2023-07-13T17:50:36;7.35;;;5.70;;
32523;SDS011;18965;52.242;20.886;2023-07-13T17:53:18;10.55;;;5.82;;
32523;SDS011;18965;52.242;20.886;2023-07-13T17:55:45;9.38;;;5.63;;
32523;SDS011;18965;52.242;20.886;2023-07-13T17:58:16;7.40;;;5.47;;
32523;SDS011;18965;52.242;20.886;2023-07-13T18:00:43;6.60;;;5.07;;
32523;SDS011;18965;52.242;20.886;2023-07-13T18:05:45;7.70;;;4.88;;
32523;SDS011;18965;52.242;20.886;2023-07-13T18:08:17;6.47;;;4.22;;
32523;SDS011;18965;52.242;20.886;2023-07-13T18:10:51;7.75;;;5.32;;
32523;SDS011;18965;52.242;20.886;2023-07-13T18:13:19;6.80;;;4.72;;
32523;SDS011;18965;52.242;20.886;2023-07-13T18:15:46;6.65;;;4.70;;
32523;SDS011;18965;52.242;20.886;2023-07-13T18:18:12;5.95;;;4.43;;
32523;SDS011;18965;52.242;20.886;2023-07-13T18:20:38;7.00;;;4.75;;
32523;SDS011;18965;52.242;20.886;2023-07-13T18:25:45;6.82;;;4.93;;
32523;SDS011;18965;52.242;20.886;2023-07-13T18:30:42;7.05;;;5.03;;
32523;SDS011;18965;52.242;20.886;2023-07-13T18:33:15;6.85;;;5.00;;
32523;SDS011;18965;52.242;20.886;2023-07-13T18:35:45;6.15;;;4.53;;
32523;SDS011;18965;52.242;20.886;2023-07-13T18:38:21;8.35;;;4.85;;
32523;SDS011;18965;52.242;20.886;2023-07-13T18:40:52;7.25;;;5.13;;
32523;SDS011;18965;52.242;20.886;2023-07-13T18:43:19;6.70;;;4.85;;
32523;SDS011;18965;52.242;20.886;2023-07-13T18:45:53;5.32;;;4.57;;
32523;SDS011;18965;52.242;20.886;2023-07-13T18:48:24;6.43;;;4.82;;
32523;SDS011;18965;52.242;20.886;2023-07-13T18:50:52;6.45;;;4.70;;
32523;SDS011;18965;52.242;20.886;2023-07-13T18:53:18;7.00;;;4.60;;
32523;SDS011;18965;52.242;20.886;2023-07-13T18:55:45;5.45;;;4.85;;
32523;SDS011;18965;52.242;20.886;2023-07-13T18:58:11;7.30;;;5.30;;
32523;SDS011;18965;52.242;20.886;2023-07-13T19:00:39;8.25;;;5.18;;
32523;SDS011;18965;52.242;20.886;2023-07-13T19:03:13;9.00;;;5.38;;
32523;SDS011;18965;52.242;20.886;2023-07-13T19:05:46;7.20;;;5.18;;
32523;SDS011;18965;52.242;20.886;2023-07-13T19:08:17;9.27;;;5.50;;
32523;SDS011;18965;52.242;20.886;2023-07-13T19:10:44;7.03;;;5.72;;
32523;SDS011;18965;52.242;20.886;2023-07-13T19:13:14;10.77;;;5.32;;
32523;SDS011;18965;52.242;20.886;2023-07-13T19:15:44;8.00;;;5.18;;
32523;SDS011;18965;52.242;20.886;2023-07-13T19:18:17;10.05;;;5.47;;
32523;SDS011;18965;52.242;20.886;2023-07-13T19:20:47;8.68;;;5.07;;
32523;SDS011;18965;52.242;20.886;2023-07-13T19:23:36;7.25;;;5.28;;
32523;SDS011;18965;52.242;20.886;2023-07-13T19:28:47;9.18;;;5.50;;
32523;SDS011;18965;52.242;20.886;2023-07-13T19:33:48;7.78;;;6.10;;
32523;SDS011;18965;52.242;20.886;2023-07-13T19:36:15;11.27;;;6.30;;
32523;SDS011;18965;52.242;20.886;2023-07-13T19:38:46;10.35;;;6.22;;
32523;SDS011;18965;52.242;20.886;2023-07-13T19:41:24;9.45;;;6.18;;
32523;SDS011;18965;52.242;20.886;2023-07-13T19:43:51;9.88;;;6.28;;
32523;SDS011;18965;52.242;20.886;2023-07-13T19:46:31;10.75;;;6.38;;
32523;SDS011;18965;52.242;20.886;2023-07-13T19:49:02;10.85;;;6.10;;
32523;SDS011;18965;52.242;20.886;2023-07-13T19:51:31;7.88;;;6.18;;
32523;SDS011;18965;52.242;20.886;2023-07-13T19:54:01;9.50;;;6.90;;
32523;SDS011;18965;52.242;20.886;2023-07-13T19:56:34;11.35;;;6.78;;
32523;SDS011;18965;52.242;20.886;2023-07-13T19:59:00;9.77;;;6.25;;
32523;SDS011;18965;52.242;20.886;2023-07-13T20:01:25;12.75;;;6.47;;